Statia Express — V7TT3 — position and weather

sailwx.info

Track history (hours):
 
Tides and Currents Weather Stations Pressure Air Temp Water Temp Dewpoint Dewpoint Depression Visibility Wind Speed Wind Dir Waves Ship Positions

Statia Express

Last reported at 2015-Aug-01 11:33 UTC. Time now 2015-Aug-01 11:47 UTC.
Position N 18°01' W 063°03'.

Length 28 m; draft 4.1 m.

Type: Tug. MMSI: 538003879.

Date/timePositionNaut miles runAvg speedWind from/ knotsBaromVisibWave heightAir tempDewpointWater temp
2015-Aug-01 11:33N 18°01' W 063°03'0 0.0
2015-Aug-01 10:32N 18°01' W 063°03'0 0.0
2015-Aug-01 09:26N 18°01' W 063°03'0 0.0
2015-Aug-01 08:30N 18°01' W 063°03'0 0.0
2015-Aug-01 07:28N 18°01' W 063°03'0 0.0
2015-Aug-01 06:32N 18°01' W 063°03'0 0.0
2015-Aug-01 05:30N 18°01' W 063°03'0 0.0
2015-Aug-01 04:28N 18°01' W 063°03'0 0.0
2015-Aug-01 03:33N 18°01' W 063°03'0 0.0
2015-Aug-01 02:30N 18°01' W 063°03'0 0.0
2015-Aug-01 01:28N 18°01' W 063°03'0 0.0
2015-Aug-01 00:32N 18°01' W 063°03'0 0.0
2015-Jul-31 23:31N 18°01' W 063°03'0 0.5
2015-Jul-31 22:32N 18°00' W 063°03'0 0.5
2015-Jul-31 21:33N 18°01' W 063°03'1 0.6
2015-Jul-31 20:33N 18°00' W 063°03'1 0.6
2015-Jul-31 19:32N 18°01' W 063°03'0 0.0
2015-Jul-31 18:31N 18°01' W 063°03'0 0.0
2015-Jul-31 17:33N 18°01' W 063°03'0 0.0
2015-Jul-31 16:32N 18°01' W 063°03'0 0.0
2015-Jul-31 15:32N 18°01' W 063°03'0 0.0
2015-Jul-31 14:33N 18°01' W 063°03'0 0.0
2015-Jul-31 13:33N 18°01' W 063°03'0 0.0
2015-Jul-31 12:33N 18°01' W 063°03'0 0.0
2015-Jul-31 11:33N 18°01' W 063°03'0 0.0
2015-Jul-31 10:33N 18°01' W 063°03'0 0.0
2015-Jul-31 09:33N 18°01' W 063°03'0 0.0
2015-Jul-31 08:32N 18°01' W 063°03'0 0.0
2015-Jul-31 07:31N 18°01' W 063°03'0 0.0
2015-Jul-31 06:27N 18°01' W 063°03'0 0.0
2015-Jul-31 05:32N 18°01' W 063°03'0 0.0
2015-Jul-31 04:22N 18°01' W 063°03'0 0.0
2015-Jul-31 03:32N 18°01' W 063°03'0 0.0
2015-Jul-31 02:29N 18°01' W 063°03'0 0.0
2015-Jul-31 01:33N 18°01' W 063°03'0 0.0
2015-Jul-31 00:31N 18°01' W 063°03'0 0.0
2015-Jul-30 23:32N 18°01' W 063°03'0 0.0
2015-Jul-30 22:32N 18°01' W 063°03'0 0.0
2015-Jul-30 21:30N 18°01' W 063°03'0 0.0
2015-Jul-30 20:32N 18°01' W 063°03'0 0.4
2015-Jul-30 19:32N 18°01' W 063°03'0 0.0
2015-Jul-30 17:30N 18°01' W 063°03'0 0.4
2015-Jul-30 16:27N 18°01' W 063°03'0 0.1
2015-Jul-30 15:30N 18°01' W 063°03'0 0.1
2015-Jul-30 14:33N 18°01' W 063°03'0 0.0
2015-Jul-30 13:30N 18°01' W 063°03'0 0.0
2015-Jul-30 12:22N 18°01' W 063°03'0 0.0
2015-Jul-30 11:28N 18°01' W 063°03'0 0.0
2015-Jul-30 10:26N 18°01' W 063°03'0 0.0
2015-Jul-30 09:32N 18°01' W 063°03'0 0.0
2015-Jul-30 08:33N 18°01' W 063°03'0 0.0
2015-Jul-30 07:25N 18°01' W 063°03'0 0.0
2015-Jul-30 06:30N 18°01' W 063°03'0 0.0
2015-Jul-30 05:31N 18°01' W 063°03'0 0.1
2015-Jul-30 04:30N 18°01' W 063°03'0 0.5
2015-Jul-30 03:33N 18°01' W 063°03'0 0.0
2015-Jul-30 02:31N 18°01' W 063°03'0 0.0
2015-Jul-30 01:31N 18°01' W 063°03'0 0.0
2015-Jul-30 00:32N 18°01' W 063°03'0 0.2
2015-Jul-29 21:30N 18°01' W 063°03'0 0.2
2015-Jul-29 19:10N 18°00' W 063°03'0 0.5
2015-Jul-29 18:31N 18°01' W 063°03'0 0.3
2015-Jul-29 17:28N 18°01' W 063°03'0 0.0
2015-Jul-29 12:12N 18°01' W 063°03'0 0.4
2015-Jul-29 11:24N 18°01' W 063°03'0 0.1
2015-Jul-29 10:30N 18°01' W 063°03'3 2.8
2015-Jul-29 09:33N 17°59' W 063°05'5 4.9
2015-Jul-29 08:32N 17°54' W 063°05'5 5.1
2015-Jul-29 07:33N 17°49' W 063°04'5 5.0
2015-Jul-29 06:32N 17°44' W 063°04'  
Track history (hours):
 
Tides and Currents Weather Stations Pressure Air Temp Water Temp Dewpoint Dewpoint Depression Visibility Wind Speed Wind Dir Waves Ship Positions

Statia Express

Last reported at 2015-Aug-01 11:33 UTC. Time now 2015-Aug-01 11:47 UTC.
Position N 18°01' W 063°03'.

Length 28 m; draft 4.1 m.

Type: Tug. MMSI: 538003879.

Date/timePositionNaut miles runAvg speedWind from/ knotsBaromVisibWave heightAir tempDewpointWater temp
2015-Aug-01 11:33N 18°01' W 063°03'0 0.0
2015-Aug-01 10:32N 18°01' W 063°03'0 0.0
2015-Aug-01 09:26N 18°01' W 063°03'0 0.0
2015-Aug-01 08:30N 18°01' W 063°03'0 0.0
2015-Aug-01 07:28N 18°01' W 063°03'0 0.0
2015-Aug-01 06:32N 18°01' W 063°03'0 0.0
2015-Aug-01 05:30N 18°01' W 063°03'0 0.0
2015-Aug-01 04:28N 18°01' W 063°03'0 0.0
2015-Aug-01 03:33N 18°01' W 063°03'0 0.0
2015-Aug-01 02:30N 18°01' W 063°03'0 0.0
2015-Aug-01 01:28N 18°01' W 063°03'0 0.0
2015-Aug-01 00:32N 18°01' W 063°03'0 0.0
2015-Jul-31 23:31N 18°01' W 063°03'0 0.5
2015-Jul-31 22:32N 18°00' W 063°03'0 0.5
2015-Jul-31 21:33N 18°01' W 063°03'1 0.6
2015-Jul-31 20:33N 18°00' W 063°03'1 0.6
2015-Jul-31 19:32N 18°01' W 063°03'0 0.0
2015-Jul-31 18:31N 18°01' W 063°03'0 0.0
2015-Jul-31 17:33N 18°01' W 063°03'0 0.0
2015-Jul-31 16:32N 18°01' W 063°03'0 0.0
2015-Jul-31 15:32N 18°01' W 063°03'0 0.0
2015-Jul-31 14:33N 18°01' W 063°03'0 0.0
2015-Jul-31 13:33N 18°01' W 063°03'0 0.0
2015-Jul-31 12:33N 18°01' W 063°03'0 0.0
2015-Jul-31 11:33N 18°01' W 063°03'0 0.0
2015-Jul-31 10:33N 18°01' W 063°03'0 0.0
2015-Jul-31 09:33N 18°01' W 063°03'0 0.0
2015-Jul-31 08:32N 18°01' W 063°03'0 0.0
2015-Jul-31 07:31N 18°01' W 063°03'0 0.0
2015-Jul-31 06:27N 18°01' W 063°03'0 0.0
2015-Jul-31 05:32N 18°01' W 063°03'0 0.0
2015-Jul-31 04:22N 18°01' W 063°03'0 0.0
2015-Jul-31 03:32N 18°01' W 063°03'0 0.0
2015-Jul-31 02:29N 18°01' W 063°03'0 0.0
2015-Jul-31 01:33N 18°01' W 063°03'0 0.0
2015-Jul-31 00:31N 18°01' W 063°03'0 0.0
2015-Jul-30 23:32N 18°01' W 063°03'0 0.0
2015-Jul-30 22:32N 18°01' W 063°03'0 0.0
2015-Jul-30 21:30N 18°01' W 063°03'0 0.0
2015-Jul-30 20:32N 18°01' W 063°03'0 0.4
2015-Jul-30 19:32N 18°01' W 063°03'0 0.0
2015-Jul-30 17:30N 18°01' W 063°03'0 0.4
2015-Jul-30 16:27N 18°01' W 063°03'0 0.1
2015-Jul-30 15:30N 18°01' W 063°03'0 0.1
2015-Jul-30 14:33N 18°01' W 063°03'0 0.0
2015-Jul-30 13:30N 18°01' W 063°03'0 0.0
2015-Jul-30 12:22N 18°01' W 063°03'0 0.0
2015-Jul-30 11:28N 18°01' W 063°03'0 0.0
2015-Jul-30 10:26N 18°01' W 063°03'0 0.0
2015-Jul-30 09:32N 18°01' W 063°03'0 0.0
2015-Jul-30 08:33N 18°01' W 063°03'0 0.0
2015-Jul-30 07:25N 18°01' W 063°03'0 0.0
2015-Jul-30 06:30N 18°01' W 063°03'0 0.0
2015-Jul-30 05:31N 18°01' W 063°03'0 0.1
2015-Jul-30 04:30N 18°01' W 063°03'0 0.5
2015-Jul-30 03:33N 18°01' W 063°03'0 0.0
2015-Jul-30 02:31N 18°01' W 063°03'0 0.0
2015-Jul-30 01:31N 18°01' W 063°03'0 0.0
2015-Jul-30 00:32N 18°01' W 063°03'0 0.2
2015-Jul-29 21:30N 18°01' W 063°03'0 0.2
2015-Jul-29 19:10N 18°00' W 063°03'0 0.5
2015-Jul-29 18:31N 18°01' W 063°03'0 0.3
2015-Jul-29 17:28N 18°01' W 063°03'0 0.0
2015-Jul-29 12:12N 18°01' W 063°03'0 0.4
2015-Jul-29 11:24N 18°01' W 063°03'0 0.1
2015-Jul-29 10:30N 18°01' W 063°03'3 2.8
2015-Jul-29 09:33N 17°59' W 063°05'5 4.9
2015-Jul-29 08:32N 17°54' W 063°05'5 5.1
2015-Jul-29 07:33N 17°49' W 063°04'5 5.0
2015-Jul-29 06:32N 17°44' W 063°04'  

Dump ship's entire track history